createdAt,value
2017-06-15T00:00:49.624Z,0
2017-06-15T00:02:11.774Z,0
2017-06-15T00:03:33.621Z,0
2017-06-15T00:04:55.769Z,0
2017-06-15T00:06:17.290Z,0
2017-06-15T00:07:39.756Z,0
2017-06-15T00:09:01.732Z,0
2017-06-15T00:10:23.650Z,0
2017-06-15T00:11:46.133Z,0
2017-06-15T00:13:08.371Z,0
2017-06-15T00:14:30.219Z,0
2017-06-15T00:15:52.356Z,0
2017-06-15T00:17:13.863Z,0
2017-06-15T00:18:36.012Z,0
2017-06-15T00:19:57.839Z,0
2017-06-15T00:21:19.670Z,0
2017-06-15T00:22:41.553Z,0
2017-06-15T00:24:02.420Z,0
2017-06-15T00:25:24.558Z,0
2017-06-15T00:26:46.399Z,0
2017-06-15T00:28:08.320Z,0
2017-06-15T00:29:30.475Z,0
2017-06-15T00:30:52.290Z,0
2017-06-15T00:32:14.403Z,0
2017-06-15T00:33:36.241Z,0
2017-06-15T00:34:58.097Z,0
2017-06-15T00:36:19.593Z,0
2017-06-15T00:37:41.414Z,0
2017-06-15T00:39:03.880Z,0
2017-06-15T00:40:26.132Z,0
2017-06-15T00:41:47.955Z,0
2017-06-15T00:43:09.140Z,0
2017-06-15T00:44:30.323Z,0
2017-06-15T00:45:52.473Z,0
2017-06-15T00:47:14.603Z,0
2017-06-15T00:48:36.523Z,0
2017-06-15T00:49:58.041Z,0
2017-06-15T00:51:19.908Z,0
2017-06-15T00:52:41.795Z,0
2017-06-15T00:54:03.616Z,0
2017-06-15T00:55:25.759Z,0
2017-06-15T00:56:47.950Z,0
2017-06-15T00:58:09.779Z,0
2017-06-15T00:59:31.613Z,0
2017-06-15T01:00:53.818Z,0
2017-06-15T01:02:15.962Z,0
2017-06-15T01:03:38.612Z,0
2017-06-15T01:04:59.811Z,0
2017-06-15T01:06:21.699Z,0
2017-06-15T01:07:43.203Z,0
2017-06-15T01:09:04.716Z,0
2017-06-15T01:10:26.957Z,0
2017-06-15T01:11:49.122Z,0
2017-06-15T01:13:11.281Z,0
2017-06-15T01:14:32.812Z,0
2017-06-15T01:15:54.654Z,0
2017-06-15T01:17:16.528Z,0
2017-06-15T01:18:38.044Z,0
2017-06-15T01:19:59.555Z,0
2017-06-15T01:21:21.398Z,0
2017-06-15T01:22:42.953Z,0
2017-06-15T01:24:05.563Z,0
2017-06-15T01:25:27.081Z,0
2017-06-15T01:26:49.231Z,0
2017-06-15T01:28:10.743Z,0
2017-06-15T01:29:32.882Z,0
2017-06-15T01:30:54.753Z,0
2017-06-15T01:32:15.949Z,0
2017-06-15T01:33:38.289Z,0
2017-06-15T01:35:00.133Z,0
2017-06-15T01:36:21.963Z,0
2017-06-15T01:37:44.412Z,0
2017-06-15T01:39:06.221Z,0
2017-06-15T01:40:28.134Z,0
2017-06-15T01:41:50.295Z,0
2017-06-15T01:43:12.500Z,0
2017-06-15T01:44:34.950Z,0
2017-06-15T01:45:57.142Z,0
2017-06-15T01:47:19.590Z,0
2017-06-15T01:48:42.125Z,0
2017-06-15T01:50:04.625Z,0
2017-06-15T01:51:26.872Z,0
2017-06-15T01:52:48.056Z,0
2017-06-15T01:54:09.562Z,0
2017-06-15T01:55:32.086Z,0
2017-06-15T01:56:53.402Z,0
2017-06-15T01:58:15.340Z,4
2017-06-15T01:59:37.502Z,4
2017-06-15T02:00:59.631Z,4
2017-06-15T02:02:21.445Z,0
2017-06-15T02:03:43.631Z,0
2017-06-15T02:05:05.782Z,4
2017-06-15T02:06:27.131Z,4
2017-06-15T02:07:48.942Z,4
2017-06-15T02:09:10.759Z,4
2017-06-15T02:10:32.262Z,4
2017-06-15T02:11:54.253Z,8
2017-06-15T02:13:16.398Z,4
2017-06-15T02:14:38.278Z,4
2017-06-15T02:16:00.143Z,12
2017-06-15T02:17:21.975Z,12
2017-06-15T02:18:44.541Z,12
2017-06-15T02:20:06.722Z,12
2017-06-15T02:21:28.572Z,16
2017-06-15T02:22:50.733Z,16
2017-06-15T02:24:12.889Z,20
2017-06-15T02:25:35.378Z,24
2017-06-15T02:26:57.618Z,24
2017-06-15T02:28:19.210Z,32
2017-06-15T02:29:41.390Z,36
2017-06-15T02:31:03.845Z,40
2017-06-15T02:32:25.988Z,48
2017-06-15T02:33:47.870Z,52
2017-06-15T02:35:10.345Z,60
2017-06-15T02:36:32.483Z,68
2017-06-15T02:37:54.310Z,80
2017-06-15T02:39:16.460Z,88
2017-06-15T02:40:38.622Z,104
2017-06-15T02:42:00.472Z,116
2017-06-15T02:43:22.945Z,128
2017-06-15T02:44:44.788Z,144
2017-06-15T02:46:07.261Z,168
2017-06-15T02:47:28.545Z,184
2017-06-15T02:48:50.061Z,204
2017-06-15T02:50:12.231Z,224
2017-06-15T02:51:34.107Z,244
2017-06-15T02:52:55.671Z,260
2017-06-15T02:54:17.403Z,288
2017-06-15T02:55:39.234Z,308
2017-06-15T02:57:01.491Z,340
2017-06-15T02:58:23.951Z,372
2017-06-15T02:59:46.462Z,404
2017-06-15T03:01:08.293Z,436
2017-06-15T03:02:30.903Z,480
2017-06-15T03:03:52.763Z,520
2017-06-15T03:05:15.252Z,572
2017-06-15T03:06:37.382Z,624
2017-06-15T03:07:59.221Z,672
2017-06-15T03:09:21.045Z,728
2017-06-15T03:10:43.216Z,780
2017-06-15T03:12:05.554Z,836
2017-06-15T03:13:26.762Z,896
2017-06-15T03:14:48.605Z,956
2017-06-15T03:16:10.589Z,1016
2017-06-15T03:17:32.809Z,1080
2017-06-15T03:18:54.322Z,1132
2017-06-15T03:20:16.464Z,1180
2017-06-15T03:21:38.499Z,1244
2017-06-15T03:23:00.381Z,1312
2017-06-15T03:24:22.589Z,1372
2017-06-15T03:25:44.404Z,1428
2017-06-15T03:27:06.551Z,1476
2017-06-15T03:28:29.012Z,1516
2017-06-15T03:29:51.155Z,1560
2017-06-15T03:31:13.334Z,1616
2017-06-15T03:32:35.171Z,1700
2017-06-15T03:33:56.046Z,1800
2017-06-15T03:35:17.543Z,1892
2017-06-15T03:36:39.376Z,1964
2017-06-15T03:38:01.941Z,2076
2017-06-15T03:39:23.771Z,2200
2017-06-15T03:40:45.600Z,2312
2017-06-15T03:42:07.732Z,2428
2017-06-15T03:43:30.242Z,2548
2017-06-15T03:44:52.707Z,2672
2017-06-15T03:46:15.146Z,2804
2017-06-15T03:47:36.970Z,2960
2017-06-15T03:48:59.121Z,3100
2017-06-15T03:50:21.583Z,3276
2017-06-15T03:51:43.730Z,3476
2017-06-15T03:53:06.223Z,3600
2017-06-15T03:54:28.064Z,3736
2017-06-15T03:55:50.530Z,3888
2017-06-15T03:57:11.723Z,4072
2017-06-15T03:58:33.543Z,4288
2017-06-15T03:59:56.135Z,4572
2017-06-15T04:01:18.606Z,4808
2017-06-15T04:02:40.227Z,5064
2017-06-15T04:04:02.374Z,5368
2017-06-15T04:05:24.851Z,5664
2017-06-15T04:06:46.673Z,5948
2017-06-15T04:08:08.803Z,6224
2017-06-15T04:09:30.952Z,6484
2017-06-15T04:10:53.086Z,6732
2017-06-15T04:12:14.930Z,7068
2017-06-15T04:13:36.894Z,7440
2017-06-15T04:14:59.051Z,7832
2017-06-15T04:16:20.893Z,8060
2017-06-15T04:17:43.229Z,8196
2017-06-15T04:19:05.412Z,8228
2017-06-15T04:20:27.230Z,8308
2017-06-15T04:21:49.118Z,8388
2017-06-15T04:23:10.989Z,8496
2017-06-15T04:24:33.183Z,8436
2017-06-15T04:25:55.331Z,8376
2017-06-15T04:27:17.642Z,8356
2017-06-15T04:28:39.134Z,8420
2017-06-15T04:30:00.962Z,8512
2017-06-15T04:31:23.440Z,8604
2017-06-15T04:32:45.569Z,8724
2017-06-15T04:34:07.709Z,8912
2017-06-15T04:35:29.632Z,9036
2017-06-15T04:36:51.784Z,9132
2017-06-15T04:38:13.945Z,9284
2017-06-15T04:39:35.487Z,9496
2017-06-15T04:40:57.363Z,9692
2017-06-15T04:42:19.203Z,9784
2017-06-15T04:43:40.703Z,9952
2017-06-15T04:45:03.212Z,10264
2017-06-15T04:46:25.062Z,10552
2017-06-15T04:47:47.201Z,10836
2017-06-15T04:49:09.363Z,11680
2017-06-15T04:50:31.816Z,15744
2017-06-15T04:51:54.279Z,18400
2017-06-15T04:53:16.459Z,19008
2017-06-15T04:54:38.596Z,19648
2017-06-15T04:56:00.526Z,20288
2017-06-15T04:57:22.693Z,21312
2017-06-15T04:58:44.663Z,22912
2017-06-15T05:00:07.338Z,24288
2017-06-15T05:01:29.173Z,25024
2017-06-15T05:02:51.493Z,26208
2017-06-15T05:04:13.700Z,26656
2017-06-15T05:05:35.843Z,24896
2017-06-15T05:06:57.692Z,25664
2017-06-15T05:08:19.510Z,23552
2017-06-15T05:09:41.336Z,26656
2017-06-15T05:11:03.860Z,25664
2017-06-15T05:12:26.021Z,24288
2017-06-15T05:13:48.294Z,31200
2017-06-15T05:15:10.482Z,32576
2017-06-15T05:16:32.622Z,32672
2017-06-15T05:17:54.469Z,33632
2017-06-15T05:19:16.311Z,34144
2017-06-15T05:20:38.882Z,34848
2017-06-15T05:22:00.510Z,37824
2017-06-15T05:23:22.993Z,38816
2017-06-15T05:24:45.163Z,37376
2017-06-15T05:26:07.638Z,37696
2017-06-15T05:27:29.483Z,37792
2017-06-15T05:28:51.653Z,40192
2017-06-15T05:30:13.925Z,41024
2017-06-15T05:31:35.800Z,43200
2017-06-15T05:32:57.953Z,44160
2017-06-15T05:34:20.454Z,45024
2017-06-15T05:35:42.291Z,44992
2017-06-15T05:37:04.829Z,44352
2017-06-15T05:38:27.041Z,43872
2017-06-15T05:39:48.620Z,43680
2017-06-15T05:41:10.790Z,44544
2017-06-15T05:42:32.643Z,44672
2017-06-15T05:43:54.580Z,44384
2017-06-15T05:45:16.862Z,44864
2017-06-15T05:46:39.382Z,46720
2017-06-15T05:48:01.543Z,47040
2017-06-15T05:49:23.494Z,45824
2017-06-15T05:50:45.335Z,47552
2017-06-15T05:52:07.192Z,47904
2017-06-15T05:53:29.032Z,49280
2017-06-15T05:54:51.181Z,48864
2017-06-15T05:56:13.490Z,47200
2017-06-15T05:57:35.443Z,49632
2017-06-15T05:58:57.309Z,51456
2017-06-15T06:00:19.282Z,54144
2017-06-15T06:01:41.448Z,53568
2017-06-15T06:03:03.615Z,53984
2017-06-15T06:04:26.083Z,54752
2017-06-15T06:05:48.577Z,54368
2017-06-15T06:07:10.423Z,54400
2017-06-15T06:08:32.670Z,55232
2017-06-15T06:09:54.619Z,53248
2017-06-15T06:11:16.802Z,52416
2017-06-15T06:12:39.093Z,50144
2017-06-15T06:14:01.355Z,46656
2017-06-15T06:15:23.214Z,48288
2017-06-15T06:16:44.426Z,48320
2017-06-15T06:18:06.693Z,47520
2017-06-15T06:19:28.544Z,48608
2017-06-15T06:20:51.120Z,47776
2017-06-15T06:22:13.256Z,48256
2017-06-15T06:23:35.424Z,46656
2017-06-15T06:24:57.905Z,42816
2017-06-15T06:26:19.443Z,44000
2017-06-15T06:27:41.607Z,46048
2017-06-15T06:29:03.479Z,47072
2017-06-15T06:30:25.641Z,47744
2017-06-15T06:31:47.482Z,51296
2017-06-15T06:33:09.022Z,50336
2017-06-15T06:34:31.022Z,47264
2017-06-15T06:35:53.370Z,43968
2017-06-15T06:37:15.005Z,44544
2017-06-15T06:38:36.858Z,45536
2017-06-15T06:39:58.731Z,46080
2017-06-15T06:41:20.279Z,48288
2017-06-15T06:42:42.451Z,53920
2017-06-15T06:44:04.968Z,55968
2017-06-15T06:45:27.127Z,55136
2017-06-15T06:46:49.453Z,53056
2017-06-15T06:48:11.094Z,58752
2017-06-15T06:49:33.024Z,64224
2017-06-15T06:50:55.174Z,64672
2017-06-15T06:52:17.331Z,63232
2017-06-15T06:53:39.494Z,60928
2017-06-15T06:55:01.706Z,65888
2017-06-15T06:56:23.300Z,66400
2017-06-15T06:57:45.780Z,61792
2017-06-15T06:59:08.285Z,61184
2017-06-15T07:00:30.452Z,59744
2017-06-15T07:01:52.964Z,57728
2017-06-15T07:03:15.113Z,61248
2017-06-15T07:04:37.742Z,61376
2017-06-15T07:05:59.285Z,63808
2017-06-15T07:07:21.151Z,61600
2017-06-15T07:08:43.311Z,58176
2017-06-15T07:10:05.090Z,61728
2017-06-15T07:11:26.999Z,61920
2017-06-15T07:12:48.208Z,64096
2017-06-15T07:14:10.151Z,63232
2017-06-15T07:15:32.313Z,66272
2017-06-15T07:16:54.472Z,69600
2017-06-15T07:18:16.010Z,71136
2017-06-15T07:19:37.861Z,70560
2017-06-15T07:21:00.382Z,66304
2017-06-15T07:22:22.343Z,56352
2017-06-15T07:23:44.522Z,52768
2017-06-15T07:25:06.710Z,45120
2017-06-15T07:26:28.571Z,40896
2017-06-15T07:27:50.102Z,38240
2017-06-15T07:29:11.982Z,36032
2017-06-15T07:30:33.817Z,34976
2017-06-15T07:31:55.457Z,33632
2017-06-15T07:33:17.630Z,33344
2017-06-15T07:34:39.812Z,30336
2017-06-15T07:36:01.351Z,31040
2017-06-15T07:37:23.238Z,32480
2017-06-15T07:38:45.088Z,32832
2017-06-15T07:40:07.224Z,31808
2017-06-15T07:41:29.508Z,29312
2017-06-15T07:42:52.004Z,29216
2017-06-15T07:44:13.556Z,29856
2017-06-15T07:45:36.125Z,30528
2017-06-15T07:46:57.971Z,29760
2017-06-15T07:48:20.171Z,27200
2017-06-15T07:49:42.700Z,24288
2017-06-15T07:51:04.242Z,27680
2017-06-15T07:52:26.440Z,30336
2017-06-15T07:53:48.643Z,31328
2017-06-15T07:55:11.132Z,30368
2017-06-15T07:56:33.025Z,30656
2017-06-15T07:57:55.257Z,31520
2017-06-15T07:59:17.421Z,26816
2017-06-15T08:00:39.264Z,25568
2017-06-15T08:02:01.440Z,23680
2017-06-15T08:03:24.013Z,23328
2017-06-15T08:04:46.271Z,24544
2017-06-15T08:06:08.134Z,24704
2017-06-15T08:07:30.283Z,23840
2017-06-15T08:08:52.432Z,22752
2017-06-15T08:10:14.905Z,21632
2017-06-15T08:11:37.392Z,22720
2017-06-15T08:12:58.922Z,20992
2017-06-15T08:14:20.439Z,18720
2017-06-15T08:15:42.606Z,17888
2017-06-15T08:17:04.832Z,16644
2017-06-15T08:18:27.479Z,15796
2017-06-15T08:19:49.424Z,15268
2017-06-15T08:21:11.281Z,14800
2017-06-15T08:22:33.198Z,14388
2017-06-15T08:23:55.450Z,13600
2017-06-15T08:25:17.918Z,13404
2017-06-15T08:26:40.067Z,13404
2017-06-15T08:28:01.906Z,13640
2017-06-15T08:29:23.740Z,13528
2017-06-15T08:30:46.022Z,13372
2017-06-15T08:32:07.619Z,13484
2017-06-15T08:33:29.755Z,13340
2017-06-15T08:34:51.343Z,13180
2017-06-15T08:36:13.241Z,13100
2017-06-15T08:37:34.782Z,13120
2017-06-15T08:38:56.308Z,13164
2017-06-15T08:40:18.830Z,13012
2017-06-15T08:41:40.992Z,12828
2017-06-15T08:43:02.819Z,12696
2017-06-15T08:44:24.409Z,12752
2017-06-15T08:45:46.349Z,12684
2017-06-15T08:47:08.264Z,12684
2017-06-15T08:48:30.742Z,12504
2017-06-15T08:49:52.907Z,12668
2017-06-15T08:51:14.098Z,12784
2017-06-15T08:52:36.595Z,12940
2017-06-15T08:53:59.080Z,13212
2017-06-15T08:55:21.253Z,13616
2017-06-15T08:56:43.095Z,13924
2017-06-15T08:58:04.959Z,14380
2017-06-15T08:59:27.457Z,14400
2017-06-15T09:00:49.642Z,14556
2017-06-15T09:02:12.443Z,14804
2017-06-15T09:03:34.601Z,15056
2017-06-15T09:04:56.761Z,15068
2017-06-15T09:06:18.920Z,15448
2017-06-15T09:07:40.769Z,15772
2017-06-15T09:09:02.924Z,15964
2017-06-15T09:10:24.467Z,16268
2017-06-15T09:11:46.928Z,16080
2017-06-15T09:13:08.611Z,16068
2017-06-15T09:14:30.437Z,15780
2017-06-15T09:15:52.258Z,15368
2017-06-15T09:17:14.410Z,15052
2017-06-15T09:18:36.331Z,14720
2017-06-15T09:19:58.220Z,14136
2017-06-15T09:21:20.381Z,13832
2017-06-15T09:22:42.582Z,13704
2017-06-15T09:24:04.478Z,12852
2017-06-15T09:25:26.346Z,12648
2017-06-15T09:26:48.199Z,12908
2017-06-15T09:28:10.141Z,12916
2017-06-15T09:29:32.634Z,13072
2017-06-15T09:30:54.793Z,12840
2017-06-15T09:32:17.421Z,12748
2017-06-15T09:33:38.950Z,12840
2017-06-15T09:35:00.808Z,12920
2017-06-15T09:36:22.680Z,12312
2017-06-15T09:37:44.861Z,12852
2017-06-15T09:39:07.007Z,13064
2017-06-15T09:40:29.280Z,13052
2017-06-15T09:41:51.750Z,12932
2017-06-15T09:43:13.937Z,12800
2017-06-15T09:44:35.891Z,12700
2017-06-15T09:45:58.051Z,12628
2017-06-15T09:47:20.632Z,12528
2017-06-15T09:48:42.780Z,12312
2017-06-15T09:50:04.390Z,12056
2017-06-15T09:51:25.912Z,12220
2017-06-15T09:52:48.432Z,12024
2017-06-15T09:54:10.916Z,11940
2017-06-15T09:55:32.848Z,12236
2017-06-15T09:56:55.150Z,12248
2017-06-15T09:58:17.007Z,11600
2017-06-15T09:59:38.209Z,11908
2017-06-15T10:00:59.731Z,11676
2017-06-15T10:02:21.904Z,11628
2017-06-15T10:03:43.739Z,11372
2017-06-15T10:05:05.892Z,11176
2017-06-15T10:06:28.403Z,11036
2017-06-15T10:07:49.974Z,11000
2017-06-15T10:09:12.186Z,11020
2017-06-15T10:10:33.708Z,11172
2017-06-15T10:11:55.860Z,11228
2017-06-15T10:13:18.022Z,11196
2017-06-15T10:14:40.190Z,11140
2017-06-15T10:16:02.663Z,11204
2017-06-15T10:17:24.311Z,11328
2017-06-15T10:18:46.151Z,11520
2017-06-15T10:20:08.309Z,11716
2017-06-15T10:21:30.481Z,11720
2017-06-15T10:22:52.952Z,11944
2017-06-15T10:24:15.105Z,11876
2017-06-15T10:25:36.960Z,11468
2017-06-15T10:26:59.100Z,11172
2017-06-15T10:28:21.569Z,11020
2017-06-15T10:29:43.465Z,11016
2017-06-15T10:31:05.619Z,11252
2017-06-15T10:32:27.859Z,11436
2017-06-15T10:33:49.750Z,11348
2017-06-15T10:35:11.590Z,11320
2017-06-15T10:36:33.099Z,11152
2017-06-15T10:37:55.000Z,10632
2017-06-15T10:39:16.826Z,10124
2017-06-15T10:40:38.345Z,9988
2017-06-15T10:42:00.111Z,10256
2017-06-15T10:43:22.605Z,10336
2017-06-15T10:44:44.526Z,10368
2017-06-15T10:46:06.031Z,10400
2017-06-15T10:47:28.181Z,10336
2017-06-15T10:48:50.027Z,10248
2017-06-15T10:50:11.889Z,10264
2017-06-15T10:51:33.191Z,10208
2017-06-15T10:52:55.351Z,10232
2017-06-15T10:54:16.869Z,10308
2017-06-15T10:55:39.353Z,10052
2017-06-15T10:57:00.873Z,9980
2017-06-15T10:58:22.731Z,9900
2017-06-15T10:59:44.625Z,9824
2017-06-15T11:01:06.790Z,9924
2017-06-15T11:02:28.624Z,10452
2017-06-15T11:03:49.867Z,11168
2017-06-15T11:05:12.030Z,12036
2017-06-15T11:06:33.873Z,12916
2017-06-15T11:07:56.632Z,13592
2017-06-15T11:09:18.807Z,13956
2017-06-15T11:10:41.301Z,14440
2017-06-15T11:12:03.170Z,15020
2017-06-15T11:13:25.334Z,15560
2017-06-15T11:14:47.196Z,15852
2017-06-15T11:16:09.690Z,16068
2017-06-15T11:17:31.546Z,16036
2017-06-15T11:18:53.113Z,16160
2017-06-15T11:20:15.601Z,16036
2017-06-15T11:21:37.767Z,15964
2017-06-15T11:23:00.007Z,15820
2017-06-15T11:24:22.351Z,15668
2017-06-15T11:25:44.517Z,15700
2017-06-15T11:27:06.680Z,15976
2017-06-15T11:28:29.179Z,16196
2017-06-15T11:29:51.692Z,16292
2017-06-15T11:31:13.871Z,16400
2017-06-15T11:32:36.035Z,17024
2017-06-15T11:33:58.196Z,16928
2017-06-15T11:35:20.362Z,17536
2017-06-15T11:36:41.900Z,18144
2017-06-15T11:38:03.433Z,18368
2017-06-15T11:39:25.900Z,20096
2017-06-15T11:40:47.451Z,22560
2017-06-15T11:42:08.656Z,23744
2017-06-15T11:43:30.977Z,23616
2017-06-15T11:44:53.631Z,22112
2017-06-15T11:46:15.182Z,21888
2017-06-15T11:47:37.646Z,22560
2017-06-15T11:48:59.910Z,22880
2017-06-15T11:50:22.080Z,23360
2017-06-15T11:51:44.013Z,23072
2017-06-15T11:53:05.920Z,22144
2017-06-15T11:54:27.441Z,21184
2017-06-15T11:55:49.636Z,20032
2017-06-15T11:57:12.120Z,19296
2017-06-15T11:58:33.996Z,19872
2017-06-15T11:59:56.480Z,21056
2017-06-15T12:01:18.653Z,22176
2017-06-15T12:02:40.479Z,23360
2017-06-15T12:04:03.161Z,24448
2017-06-15T12:05:25.332Z,25408
2017-06-15T12:06:47.501Z,25664
2017-06-15T12:08:09.781Z,25600
2017-06-15T12:09:31.951Z,25152
2017-06-15T12:10:54.181Z,24640
2017-06-15T12:12:16.663Z,24128
2017-06-15T12:13:39.313Z,23936
2017-06-15T12:15:01.471Z,24160
2017-06-15T12:16:23.300Z,24544
2017-06-15T12:17:45.491Z,24736
2017-06-15T12:19:08.324Z,24992
2017-06-15T12:20:30.253Z,25344
2017-06-15T12:21:52.452Z,25536
2017-06-15T12:23:14.648Z,25568
2017-06-15T12:24:36.811Z,25280
2017-06-15T12:25:58.971Z,24384
2017-06-15T12:27:21.510Z,23712
2017-06-15T12:28:43.751Z,23616
2017-06-15T12:30:06.587Z,23168
2017-06-15T12:31:29.111Z,22880
2017-06-15T12:32:51.276Z,23328
2017-06-15T12:34:13.804Z,21760
2017-06-15T12:35:36.666Z,19712
2017-06-15T12:36:59.232Z,18080
2017-06-15T12:38:21.822Z,18144
2017-06-15T12:39:43.353Z,20192
2017-06-15T12:41:05.527Z,22464
2017-06-15T12:42:28.131Z,23360
2017-06-15T12:43:50.303Z,23392
2017-06-15T12:45:12.960Z,23872
2017-06-15T12:46:35.126Z,24640
2017-06-15T12:47:57.313Z,24896
2017-06-15T12:49:19.806Z,24416
2017-06-15T12:50:42.491Z,23232
2017-06-15T12:52:04.349Z,22944
2017-06-15T12:53:26.239Z,22496
2017-06-15T12:54:48.733Z,22208
2017-06-15T12:56:10.583Z,22592
2017-06-15T12:57:32.758Z,23520
2017-06-15T12:58:55.233Z,23840
2017-06-15T13:00:17.401Z,23200
2017-06-15T13:01:39.581Z,22208
2017-06-15T13:03:01.452Z,21120
2017-06-15T13:04:23.875Z,20416
2017-06-15T13:05:46.392Z,21440
2017-06-15T13:07:08.999Z,22720
2017-06-15T13:08:31.240Z,21920
2017-06-15T13:09:53.452Z,20736
2017-06-15T13:11:16.080Z,18752
2017-06-15T13:12:37.628Z,17056
2017-06-15T13:14:00.373Z,15532
2017-06-15T13:15:22.542Z,15740
2017-06-15T13:16:45.033Z,15580
2017-06-15T13:18:07.208Z,15312
2017-06-15T13:19:28.749Z,15064
2017-06-15T13:20:50.958Z,14960
2017-06-15T13:22:12.810Z,15044
2017-06-15T13:23:34.660Z,15080
2017-06-15T13:24:57.255Z,15468
2017-06-15T13:26:18.801Z,16216
2017-06-15T13:27:40.641Z,17216
2017-06-15T13:29:02.848Z,18208
2017-06-15T13:30:25.121Z,18880
2017-06-15T13:31:47.306Z,19360
2017-06-15T13:33:09.791Z,19168
2017-06-15T13:34:31.641Z,18432
2017-06-15T13:35:53.189Z,17952
2017-06-15T13:37:15.456Z,17344
2017-06-15T13:38:37.653Z,16800
2017-06-15T13:39:59.748Z,16384
2017-06-15T13:41:22.277Z,16288
2017-06-15T13:42:44.133Z,16352
2017-06-15T13:44:06.360Z,16480
2017-06-15T13:45:28.534Z,16384
2017-06-15T13:46:50.702Z,16128
2017-06-15T13:48:12.880Z,15564
2017-06-15T13:49:35.062Z,14796
2017-06-15T13:50:57.331Z,14024
2017-06-15T13:52:19.201Z,13456
2017-06-15T13:53:41.372Z,13116
2017-06-15T13:55:03.588Z,13076
2017-06-15T13:56:26.081Z,13464
2017-06-15T13:57:48.337Z,13972
2017-06-15T13:59:10.508Z,14280
2017-06-15T14:00:32.722Z,14500
2017-06-15T14:01:54.922Z,14664
2017-06-15T14:03:16.785Z,14640
2017-06-15T14:04:38.971Z,14740
2017-06-15T14:06:01.155Z,14900
2017-06-15T14:07:23.001Z,15068
2017-06-15T14:08:44.882Z,15280
2017-06-15T14:10:07.437Z,15392
2017-06-15T14:11:28.983Z,15404
2017-06-15T14:12:50.841Z,15368
2017-06-15T14:14:12.372Z,15348
2017-06-15T14:15:33.907Z,15412
2017-06-15T14:16:56.301Z,15512
2017-06-15T14:18:18.492Z,15516
2017-06-15T14:19:40.713Z,15464
2017-06-15T14:21:03.311Z,15344
2017-06-15T14:22:26.156Z,15336
2017-06-15T14:23:48.715Z,15444
2017-06-15T14:25:11.210Z,15576
2017-06-15T14:26:33.757Z,15588
2017-06-15T14:27:56.297Z,15568
2017-06-15T14:29:18.834Z,15636
2017-06-15T14:30:40.682Z,16000
2017-06-15T14:32:02.889Z,16352
2017-06-15T14:33:25.381Z,16800
2017-06-15T14:34:47.648Z,17248
2017-06-15T14:36:09.572Z,17696
2017-06-15T14:37:32.071Z,18112
2017-06-15T14:38:54.551Z,18272
2017-06-15T14:40:16.750Z,18016
2017-06-15T14:41:38.622Z,17408
2017-06-15T14:43:00.839Z,16640
2017-06-15T14:44:22.722Z,15688
2017-06-15T14:45:45.270Z,14732
2017-06-15T14:47:07.511Z,13672
2017-06-15T14:48:30.082Z,12648
2017-06-15T14:49:52.611Z,11544
2017-06-15T14:51:14.520Z,10324
2017-06-15T14:52:36.073Z,9364
2017-06-15T14:53:58.028Z,8976
2017-06-15T14:55:20.189Z,8888
2017-06-15T14:56:42.771Z,8980
2017-06-15T14:58:05.340Z,9224
2017-06-15T14:59:27.551Z,9440
2017-06-15T15:00:49.411Z,9512
2017-06-15T15:02:11.909Z,9380
2017-06-15T15:03:34.094Z,8844
2017-06-15T15:04:56.591Z,8096
2017-06-15T15:06:19.161Z,7496
2017-06-15T15:07:41.122Z,7512
2017-06-15T15:09:03.382Z,7812
2017-06-15T15:10:25.252Z,8064
2017-06-15T15:11:47.451Z,8272
2017-06-15T15:13:09.640Z,8224
2017-06-15T15:14:31.893Z,7972
2017-06-15T15:15:53.807Z,7348
2017-06-15T15:17:19.298Z,6504
2017-06-15T15:18:41.491Z,6224
2017-06-15T15:20:03.974Z,6164
2017-06-15T15:21:26.572Z,6472
2017-06-15T15:22:48.752Z,6740
2017-06-15T15:24:11.030Z,7064
2017-06-15T15:25:33.186Z,7204
2017-06-15T15:26:55.036Z,7532
2017-06-15T15:28:16.993Z,7704
2017-06-15T15:29:38.870Z,7732
2017-06-15T15:31:00.401Z,8828
2017-06-15T15:32:22.902Z,9696
2017-06-15T15:33:45.069Z,9956
2017-06-15T15:35:07.528Z,9932
2017-06-15T15:36:30.121Z,9704
2017-06-15T15:37:51.668Z,8472
2017-06-15T15:39:14.209Z,7096
2017-06-15T15:40:36.422Z,5736
2017-06-15T15:41:58.592Z,4344
2017-06-15T15:43:20.880Z,3692
2017-06-15T15:44:43.380Z,3456
2017-06-15T15:46:05.554Z,2668
2017-06-15T15:47:28.040Z,1960
2017-06-15T15:48:50.583Z,1504
2017-06-15T15:50:12.759Z,1184
2017-06-15T15:51:35.214Z,952
2017-06-15T15:52:57.115Z,752
2017-06-15T15:54:19.711Z,604
2017-06-15T15:55:41.583Z,584
2017-06-15T15:57:03.481Z,508
2017-06-15T15:58:25.693Z,456
2017-06-15T15:59:48.309Z,468
2017-06-15T16:01:10.920Z,632
2017-06-15T16:02:32.787Z,912
2017-06-15T16:03:56.411Z,1112
2017-06-15T16:05:19.911Z,1388
2017-06-15T16:06:42.231Z,1632
2017-06-15T16:08:04.411Z,1812
2017-06-15T16:09:26.920Z,1784
2017-06-15T16:10:48.462Z,1672
2017-06-15T16:12:10.346Z,2184
2017-06-15T16:13:32.894Z,2608
2017-06-15T16:14:55.381Z,2660
2017-06-15T16:16:17.611Z,2652
2017-06-15T16:17:40.200Z,2836
2017-06-15T16:19:02.817Z,2216
2017-06-15T16:20:25.310Z,1872
2017-06-15T16:21:47.581Z,2160
2017-06-15T16:23:10.079Z,2632
2017-06-15T16:24:31.611Z,3020
2017-06-15T16:25:53.780Z,3184
2017-06-15T16:27:15.730Z,3424
2017-06-15T16:28:37.601Z,3972
2017-06-15T16:30:00.220Z,4224
2017-06-15T16:31:22.523Z,4656
2017-06-15T16:32:44.811Z,5432
2017-06-15T16:34:07.313Z,5840
2017-06-15T16:35:29.828Z,5648
2017-06-15T16:36:51.443Z,5216
2017-06-15T16:38:13.439Z,5296
2017-06-15T16:39:35.351Z,5620
2017-06-15T16:40:57.539Z,6548
2017-06-15T16:42:19.870Z,7512
2017-06-15T16:43:42.065Z,7808
2017-06-15T16:45:04.253Z,7212
2017-06-15T16:46:26.138Z,5808
2017-06-15T16:47:48.346Z,5852
2017-06-15T16:49:10.951Z,6360
2017-06-15T16:50:33.147Z,5736
2017-06-15T16:51:55.741Z,4592
2017-06-15T16:53:17.941Z,4064
2017-06-15T16:54:40.120Z,3548
2017-06-15T16:56:02.749Z,2752
2017-06-15T16:57:24.923Z,2332
2017-06-15T16:58:47.428Z,1960
2017-06-15T17:00:09.971Z,1788
2017-06-15T17:01:32.290Z,1424
2017-06-15T17:02:54.280Z,1132
2017-06-15T17:04:16.490Z,884
2017-06-15T17:05:38.352Z,840
2017-06-15T17:07:00.630Z,860
2017-06-15T17:08:22.826Z,772
2017-06-15T17:09:45.391Z,632
2017-06-15T17:11:07.924Z,672
2017-06-15T17:12:30.409Z,552
2017-06-15T17:13:52.601Z,320
2017-06-15T17:15:15.121Z,268
2017-06-15T17:16:37.745Z,236
2017-06-15T17:17:59.623Z,320
2017-06-15T17:19:21.803Z,372
2017-06-15T17:20:44.431Z,556
2017-06-15T17:22:06.643Z,580
2017-06-15T17:23:28.901Z,476
2017-06-15T17:24:51.185Z,452
2017-06-15T17:26:13.567Z,532
2017-06-15T17:27:36.097Z,556
2017-06-15T17:28:58.290Z,552
2017-06-15T17:30:20.524Z,524
2017-06-15T17:31:42.397Z,508
2017-06-15T17:33:04.891Z,556
2017-06-15T17:34:27.395Z,528
2017-06-15T17:35:49.669Z,572
2017-06-15T17:37:12.541Z,628
2017-06-15T17:38:34.459Z,804
2017-06-15T17:39:56.670Z,1216
2017-06-15T17:41:18.962Z,1420
2017-06-15T17:42:41.169Z,1600
2017-06-15T17:44:03.352Z,1632
2017-06-15T17:45:25.624Z,1632
2017-06-15T17:46:47.932Z,1660
2017-06-15T17:48:10.554Z,2004
2017-06-15T17:49:33.121Z,2404
2017-06-15T17:50:55.670Z,2932
2017-06-15T17:52:18.180Z,3316
2017-06-15T17:53:40.793Z,3128
2017-06-15T17:55:03.029Z,3116
2017-06-15T17:56:25.250Z,3436
2017-06-15T17:57:47.877Z,3552
2017-06-15T17:59:10.052Z,3284
2017-06-15T18:00:32.352Z,3108
2017-06-15T18:01:54.850Z,2756
2017-06-15T18:03:17.361Z,2276
2017-06-15T18:04:39.843Z,2040
2017-06-15T18:06:02.424Z,2128
2017-06-15T18:07:24.615Z,2012
2017-06-15T18:08:47.110Z,1860
2017-06-15T18:10:09.416Z,1896